createdAt,value
2023-01-23T00:00:12.200Z,-16.36
2023-01-23T00:05:18.003Z,-16.36
2023-01-23T00:10:23.073Z,-16.37
2023-01-23T00:15:28.188Z,-16.37
2023-01-23T00:20:32.393Z,-16.36
2023-01-23T00:25:37.079Z,-16.36
2023-01-23T00:30:41.153Z,-16.34
2023-01-23T00:35:46.617Z,-16.32
2023-01-23T00:40:52.375Z,-16.32
2023-01-23T00:45:57.809Z,-16.33
2023-01-23T00:51:01.837Z,-16.33
2023-01-23T00:56:06.944Z,-16.35
2023-01-23T01:01:14.860Z,-16.32
2023-01-23T01:06:19.835Z,-16.45
2023-01-23T01:11:27.392Z,-16.34
2023-01-23T01:16:35.455Z,-16.30
2023-01-23T01:21:42.920Z,-16.30
2023-01-23T01:26:48.371Z,-16.29
2023-01-23T01:31:54.857Z,-16.30
2023-01-23T01:36:59.771Z,-16.31
2023-01-23T01:42:05.330Z,-16.30
2023-01-23T01:47:18.023Z,-16.62
2023-01-23T01:52:24.331Z,-16.26
2023-01-23T01:57:37.074Z,-16.25
2023-01-23T02:02:50.325Z,-16.23
2023-01-23T02:08:18.960Z,-16.22
2023-01-23T02:13:37.552Z,-16.18
2023-01-23T02:18:46.033Z,-16.18
2023-01-23T02:24:18.470Z,-16.17
2023-01-23T02:29:23.236Z,-16.55
2023-01-23T02:34:31.772Z,-16.43
2023-01-23T02:39:40.355Z,-16.13
2023-01-23T02:44:48.114Z,-16.10
2023-01-23T02:49:56.522Z,-16.08
2023-01-23T02:55:01.899Z,-16.04
2023-01-23T03:00:25.051Z,-16.02
2023-01-23T03:05:30.421Z,-16.01
2023-01-23T03:10:37.037Z,-15.97
2023-01-23T03:15:43.235Z,-15.93
2023-01-23T03:20:48.880Z,-15.88
2023-01-23T03:25:59.487Z,-15.85
2023-01-23T03:31:08.498Z,-15.82
2023-01-23T03:36:14.348Z,-15.78
2023-01-23T03:41:28.746Z,-15.76
2023-01-23T03:46:38.056Z,-15.72
2023-01-23T03:51:43.000Z,-15.67
2023-01-23T03:56:48.021Z,-15.63
2023-01-23T04:02:19.619Z,-15.57
2023-01-23T04:07:25.412Z,-15.53
2023-01-23T04:12:31.998Z,-15.46
2023-01-23T04:17:37.044Z,-15.37
2023-01-23T04:22:42.976Z,-15.30
2023-01-23T04:27:48.534Z,-15.28
2023-01-23T04:32:52.576Z,-15.20
2023-01-23T04:37:57.168Z,-15.21
2023-01-23T04:43:02.517Z,-15.16
2023-01-23T04:48:25.025Z,-15.00
2023-01-23T04:53:30.457Z,-14.95
2023-01-23T04:58:38.790Z,-14.93
2023-01-23T05:03:46.826Z,-14.88
2023-01-23T05:08:53.904Z,-14.82
2023-01-23T05:14:08.866Z,-14.76
2023-01-23T05:19:16.422Z,-14.71
2023-01-23T05:24:23.023Z,-14.70
2023-01-23T05:29:27.876Z,-14.54
2023-01-23T05:34:44.771Z,-14.48
2023-01-23T05:40:01.600Z,-14.41
2023-01-23T05:45:27.627Z,-14.36
2023-01-23T05:50:34.610Z,-14.33
2023-01-23T05:55:39.970Z,-14.27
2023-01-23T06:00:46.468Z,-14.20
2023-01-23T06:06:13.154Z,-14.15
2023-01-23T06:11:16.957Z,-13.96
2023-01-23T06:16:22.133Z,-13.86
2023-01-23T06:21:28.554Z,-13.67
2023-01-23T06:26:36.391Z,-13.55
2023-01-23T06:31:41.338Z,-13.44
2023-01-23T06:36:48.268Z,-13.41
2023-01-23T06:41:55.164Z,-13.29
2023-01-23T06:47:00.250Z,-13.23
2023-01-23T06:52:08.595Z,-13.19
2023-01-23T06:57:14.039Z,-13.12
2023-01-23T07:02:19.494Z,-13.54
2023-01-23T07:07:27.759Z,-13.14
2023-01-23T07:12:33.972Z,-13.13
2023-01-23T07:17:38.601Z,-13.07
2023-01-23T07:22:44.597Z,-12.99
2023-01-23T07:27:48.481Z,-12.90
2023-01-23T07:32:55.815Z,-12.82
2023-01-23T07:38:01.103Z,-12.80
2023-01-23T07:43:06.530Z,-12.80
2023-01-23T07:48:11.374Z,-12.78
2023-01-23T07:53:15.207Z,-12.77
2023-01-23T07:58:22.643Z,-12.73
2023-01-23T08:03:29.571Z,-12.66
2023-01-23T08:08:34.532Z,-12.57
2023-01-23T08:13:39.410Z,-12.53
2023-01-23T08:18:45.153Z,-12.50
2023-01-23T08:23:48.970Z,-12.59
2023-01-23T08:28:54.718Z,-12.55
2023-01-23T08:33:59.613Z,-12.61
2023-01-23T08:39:04.026Z,-12.74
2023-01-23T08:44:08.698Z,-12.66
2023-01-23T08:49:12.849Z,-12.67
2023-01-23T08:54:17.485Z,-12.72
2023-01-23T08:59:22.525Z,-12.77
2023-01-23T09:04:26.387Z,-12.85
2023-01-23T09:09:31.109Z,-12.77
2023-01-23T09:14:35.146Z,-12.80
2023-01-23T09:19:39.966Z,-12.85
2023-01-23T09:24:45.492Z,-12.91
2023-01-23T09:29:52.189Z,-12.99
2023-01-23T09:34:56.183Z,-12.98
2023-01-23T09:40:01.505Z,-13.02
2023-01-23T09:45:09.041Z,-13.10
2023-01-23T09:50:28.646Z,-13.20
2023-01-23T09:55:43.585Z,-13.22
2023-01-23T10:00:48.291Z,-13.30
2023-01-23T10:06:20.873Z,-13.42
2023-01-23T10:11:34.739Z,-13.51
2023-01-23T10:16:50.853Z,-13.61
2023-01-23T10:22:37.071Z,-13.75
2023-01-23T10:27:47.780Z,-13.89
2023-01-23T10:33:15.699Z,-14.11
2023-01-23T10:38:34.493Z,-14.22
2023-01-23T10:43:38.298Z,-14.27
2023-01-23T10:48:54.091Z,-14.31
2023-01-23T10:54:31.347Z,-14.45
2023-01-23T10:59:52.759Z,-14.63
2023-01-23T11:05:00.135Z,-14.69
2023-01-23T11:10:12.841Z,-14.75
2023-01-23T11:15:27.123Z,-14.94
2023-01-23T11:20:35.633Z,-15.02
2023-01-23T11:26:07.589Z,-15.12
2023-01-23T11:31:20.152Z,-15.54
2023-01-23T11:36:53.623Z,-15.33
2023-01-23T11:41:59.252Z,-15.26
2023-01-23T11:47:40.267Z,-15.26
2023-01-23T11:53:07.278Z,-15.24
2023-01-23T11:58:37.210Z,-15.24
2023-01-23T12:04:25.340Z,-15.32
2023-01-23T12:09:55.177Z,-15.26
2023-01-23T12:15:19.107Z,-15.18
2023-01-23T12:20:48.505Z,-15.04
2023-01-23T12:26:05.031Z,-14.94
2023-01-23T12:31:25.064Z,-14.87
2023-01-23T12:36:44.294Z,-14.80
2023-01-23T12:42:12.469Z,-14.75
2023-01-23T12:47:27.938Z,-14.72
2023-01-23T12:52:45.614Z,-14.75
2023-01-23T12:58:07.804Z,-14.81
2023-01-23T13:03:37.410Z,-14.83
2023-01-23T13:09:12.621Z,-14.87
2023-01-23T13:15:12.457Z,-14.90
2023-01-23T13:20:41.428Z,-14.93
2023-01-23T13:25:47.625Z,-14.90
2023-01-23T13:31:05.027Z,-14.86
2023-01-23T13:36:24.877Z,-14.85
2023-01-23T13:41:36.101Z,-14.92
2023-01-23T14:20:40.379Z,-14.60
2023-01-23T14:25:48.768Z,-14.55
2023-01-23T14:31:23.814Z,-14.49
2023-01-23T14:36:29.535Z,-14.72
2023-01-23T14:41:41.852Z,-14.47
2023-01-23T14:46:48.068Z,-14.55
2023-01-23T14:52:02.973Z,-14.43
2023-01-23T14:57:10.803Z,-14.40
2023-01-23T15:02:28.222Z,-14.36
2023-01-23T15:07:31.857Z,-14.36
2023-01-23T15:12:39.202Z,-14.39
2023-01-23T15:17:46.969Z,-14.39
2023-01-23T15:22:52.593Z,-14.38
2023-01-23T15:27:58.105Z,-14.36
2023-01-23T15:33:07.961Z,-14.38
2023-01-23T15:38:18.725Z,-14.44
2023-01-23T15:43:24.786Z,-14.36
2023-01-23T15:48:29.484Z,-14.30
2023-01-23T15:53:35.377Z,-14.23
2023-01-23T15:58:40.357Z,-14.20
2023-01-23T16:03:46.764Z,-14.19
2023-01-23T16:09:05.145Z,-14.14
2023-01-23T16:14:19.464Z,-14.07
2023-01-23T16:19:25.722Z,-14.06
2023-01-23T16:24:35.591Z,-14.04
2023-01-23T16:29:39.619Z,-14.00
2023-01-23T16:34:44.666Z,-13.96
2023-01-23T16:39:48.549Z,-13.90
2023-01-23T16:44:53.411Z,-13.86
2023-01-23T16:49:57.169Z,-13.79
2023-01-23T16:55:14.529Z,-13.75
2023-01-23T17:00:33.506Z,-13.73
2023-01-23T17:05:39.840Z,-13.71
2023-01-23T17:10:46.604Z,-13.69
2023-01-23T17:15:57.666Z,-13.62
2023-01-23T17:21:02.381Z,-13.59
2023-01-23T17:26:18.557Z,-13.54
2023-01-23T17:31:27.568Z,-13.53
2023-01-23T17:36:37.635Z,-13.50
2023-01-23T17:41:45.895Z,-13.47
2023-01-23T17:46:56.952Z,-13.44
2023-01-23T17:52:03.391Z,-13.41
2023-01-23T17:57:07.257Z,-13.36
2023-01-23T18:02:27.721Z,-13.32
2023-01-23T18:07:52.267Z,-13.32
2023-01-23T18:13:23.922Z,-13.25
2023-01-23T18:18:34.635Z,-13.22
2023-01-23T18:23:39.613Z,-13.22
2023-01-23T18:29:14.543Z,-13.22
2023-01-23T18:34:37.822Z,-13.21
2023-01-23T18:39:41.449Z,-13.20
2023-01-23T18:45:23.699Z,-13.22
2023-01-23T18:50:31.102Z,-13.23
2023-01-23T18:56:15.103Z,-13.21
2023-01-23T19:01:54.394Z,-13.19
2023-01-23T19:06:59.275Z,-13.17
2023-01-23T19:12:25.473Z,-13.17
2023-01-23T19:17:52.549Z,-13.15
2023-01-23T19:23:23.006Z,-13.14
2023-01-23T19:28:27.117Z,-13.13
2023-01-23T19:33:31.386Z,-13.12
2023-01-23T19:38:35.425Z,-13.12
2023-01-23T19:43:39.160Z,-13.10
2023-01-23T19:48:45.596Z,-13.09
2023-01-23T19:53:50.863Z,-13.09
2023-01-23T19:58:55.154Z,-13.15
2023-01-23T20:03:59.147Z,-13.09
2023-01-23T20:09:03.750Z,-13.07
2023-01-23T20:14:08.449Z,-13.08
2023-01-23T20:19:17.100Z,-13.12
2023-01-23T20:24:22.853Z,-13.29
2023-01-23T20:29:28.769Z,-13.25
2023-01-23T20:34:34.210Z,-13.30
2023-01-23T20:39:38.213Z,-13.45
2023-01-23T20:44:45.896Z,-13.78
2023-01-23T20:49:50.023Z,-13.37
2023-01-23T20:54:54.000Z,-13.45
2023-01-23T20:59:58.387Z,-13.31
2023-01-23T21:05:03.956Z,-13.34
2023-01-23T21:10:08.172Z,-13.27
2023-01-23T21:15:13.536Z,-13.25
2023-01-23T21:20:20.368Z,-13.33
2023-01-23T21:25:26.079Z,-13.21
2023-01-23T21:30:31.488Z,-13.29
2023-01-23T21:35:36.939Z,-13.16
2023-01-23T21:40:40.841Z,-13.12
2023-01-23T21:45:45.756Z,-13.07
2023-01-23T21:50:49.751Z,-13.12
2023-01-23T21:55:55.077Z,-12.96
2023-01-23T22:01:20.233Z,-12.96
2023-01-23T22:06:26.829Z,-12.89
2023-01-23T22:11:32.924Z,-12.87
2023-01-23T22:16:48.383Z,-12.83
2023-01-23T22:21:54.626Z,-12.80
2023-01-23T22:26:58.357Z,-12.77
2023-01-23T22:32:05.113Z,-12.78
2023-01-23T22:37:14.894Z,-12.78
2023-01-23T22:42:21.728Z,-12.74
2023-01-23T22:47:25.804Z,-12.73
2023-01-23T22:52:29.521Z,-12.73
2023-01-23T22:57:37.016Z,-12.68
2023-01-23T23:02:41.148Z,-12.67
2023-01-23T23:07:45.116Z,-12.64
2023-01-23T23:12:48.944Z,-12.71
2023-01-23T23:17:52.949Z,-12.63
2023-01-23T23:22:56.716Z,-12.70
2023-01-23T23:28:01.904Z,-12.96
2023-01-23T23:33:06.504Z,-12.59
2023-01-23T23:38:16.828Z,-12.59
2023-01-23T23:43:20.610Z,-12.57
2023-01-23T23:48:24.941Z,-12.54
2023-01-23T23:53:28.894Z,-12.59
2023-01-23T23:58:35.779Z,-12.50
